Gramling, South Carolina
Current Conditions -  °F | °C
As of 5:53 PM on Tuesday 21 Oct 2014 (Local Time) from KGSP Reporting Station
Broken Clouds Broken Clouds  
Wind Chill: 69°   Ceiling: 6500
Heat Index: 69°   Visibility: 10mi
Dew Point: 45°   Wind: 8mph
Humidity: 42%   Direction: 10°N
Pressure: 29.88"   Gusts: NA
Location:  35.08°N, 82.13°W
Report Text: KGSP 212153Z 01007KT 10SM BKN065 21/07 A2988 RMK AO2 SLP114 T02060072
Loading
Personal Weather Stations






























Interactive Weather Map
Tropical Storm Tracking
New forecast layout! Learn more

10-Day Weather Forecast

Advertisements
Track Severe Weather on mobile